sensor_id;sensor_type;location;lat;lon;timestamp;P1;durP1;ratioP1;P2;durP2;ratioP2
65971;SDS011;52726;48.852;9.152;2023-02-10T00:00:44;15.10;;;6.88;;
65971;SDS011;52726;48.852;9.152;2023-02-10T00:03:09;20.10;;;8.93;;
65971;SDS011;52726;48.852;9.152;2023-02-10T00:05:34;20.13;;;8.18;;
65971;SDS011;52726;48.852;9.152;2023-02-10T00:08:00;14.35;;;7.60;;
65971;SDS011;52726;48.852;9.152;2023-02-10T00:10:25;14.48;;;7.10;;
65971;SDS011;52726;48.852;9.152;2023-02-10T00:12:50;13.57;;;6.75;;
65971;SDS011;52726;48.852;9.152;2023-02-10T00:15:16;16.90;;;7.03;;
65971;SDS011;52726;48.852;9.152;2023-02-10T00:17:41;16.80;;;6.75;;
65971;SDS011;52726;48.852;9.152;2023-02-10T00:20:07;22.70;;;8.13;;
65971;SDS011;52726;48.852;9.152;2023-02-10T00:22:33;15.63;;;7.40;;
65971;SDS011;52726;48.852;9.152;2023-02-10T00:24:58;18.63;;;8.02;;
65971;SDS011;52726;48.852;9.152;2023-02-10T00:27:24;15.70;;;7.25;;
65971;SDS011;52726;48.852;9.152;2023-02-10T00:29:50;9.38;;;6.72;;
65971;SDS011;52726;48.852;9.152;2023-02-10T00:32:15;13.98;;;7.32;;
65971;SDS011;52726;48.852;9.152;2023-02-10T00:34:42;14.43;;;6.85;;
65971;SDS011;52726;48.852;9.152;2023-02-10T00:37:08;9.27;;;6.85;;
65971;SDS011;52726;48.852;9.152;2023-02-10T00:39:33;13.77;;;8.15;;
65971;SDS011;52726;48.852;9.152;2023-02-10T00:41:59;14.90;;;7.90;;
65971;SDS011;52726;48.852;9.152;2023-02-10T00:44:24;14.73;;;7.07;;
65971;SDS011;52726;48.852;9.152;2023-02-10T00:46:50;11.50;;;6.55;;
65971;SDS011;52726;48.852;9.152;2023-02-10T00:49:15;12.90;;;7.53;;
65971;SDS011;52726;48.852;9.152;2023-02-10T00:51:40;13.95;;;7.72;;
65971;SDS011;52726;48.852;9.152;2023-02-10T00:54:06;16.48;;;8.43;;
65971;SDS011;52726;48.852;9.152;2023-02-10T00:56:32;17.00;;;8.75;;
65971;SDS011;52726;48.852;9.152;2023-02-10T00:58:57;12.00;;;7.85;;
65971;SDS011;52726;48.852;9.152;2023-02-10T01:01:22;17.77;;;7.43;;
65971;SDS011;52726;48.852;9.152;2023-02-10T01:03:48;11.25;;;6.40;;
65971;SDS011;52726;48.852;9.152;2023-02-10T01:06:13;11.10;;;6.53;;
65971;SDS011;52726;48.852;9.152;2023-02-10T01:08:42;7.95;;;5.07;;
65971;SDS011;52726;48.852;9.152;2023-02-10T01:11:08;11.70;;;6.63;;
65971;SDS011;52726;48.852;9.152;2023-02-10T01:13:35;12.13;;;6.30;;
65971;SDS011;52726;48.852;9.152;2023-02-10T01:16:05;15.88;;;8.27;;
65971;SDS011;52726;48.852;9.152;2023-02-10T01:18:37;13.63;;;8.30;;
65971;SDS011;52726;48.852;9.152;2023-02-10T01:21:07;17.33;;;6.72;;
65971;SDS011;52726;48.852;9.152;2023-02-10T01:23:34;16.73;;;7.68;;
65971;SDS011;52726;48.852;9.152;2023-02-10T01:26:00;16.00;;;6.85;;
65971;SDS011;52726;48.852;9.152;2023-02-10T01:28:25;16.35;;;8.60;;
65971;SDS011;52726;48.852;9.152;2023-02-10T01:30:51;14.20;;;8.23;;
65971;SDS011;52726;48.852;9.152;2023-02-10T01:33:16;15.73;;;8.63;;
65971;SDS011;52726;48.852;9.152;2023-02-10T01:35:41;12.50;;;6.68;;
65971;SDS011;52726;48.852;9.152;2023-02-10T01:38:07;14.68;;;7.25;;
65971;SDS011;52726;48.852;9.152;2023-02-10T01:40:32;7.68;;;5.22;;
65971;SDS011;52726;48.852;9.152;2023-02-10T01:42:57;13.35;;;8.05;;
65971;SDS011;52726;48.852;9.152;2023-02-10T01:45:35;11.65;;;6.70;;
65971;SDS011;52726;48.852;9.152;2023-02-10T01:48:03;8.90;;;5.25;;
65971;SDS011;52726;48.852;9.152;2023-02-10T01:50:31;15.35;;;7.25;;
65971;SDS011;52726;48.852;9.152;2023-02-10T01:53:02;9.50;;;5.90;;
65971;SDS011;52726;48.852;9.152;2023-02-10T01:55:31;12.95;;;7.53;;
65971;SDS011;52726;48.852;9.152;2023-02-10T01:57:59;12.65;;;7.18;;
65971;SDS011;52726;48.852;9.152;2023-02-10T02:00:30;13.98;;;6.45;;
65971;SDS011;52726;48.852;9.152;2023-02-10T02:02:55;14.63;;;5.45;;
65971;SDS011;52726;48.852;9.152;2023-02-10T02:05:22;12.32;;;5.85;;
65971;SDS011;52726;48.852;9.152;2023-02-10T02:07:54;15.25;;;7.45;;
65971;SDS011;52726;48.852;9.152;2023-02-10T02:10:23;12.32;;;5.38;;
65971;SDS011;52726;48.852;9.152;2023-02-10T02:12:57;16.10;;;6.15;;
65971;SDS011;52726;48.852;9.152;2023-02-10T02:15:32;18.35;;;7.43;;
65971;SDS011;52726;48.852;9.152;2023-02-10T02:32:33;10.50;;;5.53;;
65971;SDS011;52726;48.852;9.152;2023-02-10T02:37:30;10.23;;;5.60;;
65971;SDS011;52726;48.852;9.152;2023-02-10T02:39:58;9.95;;;7.18;;
65971;SDS011;52726;48.852;9.152;2023-02-10T02:42:25;14.23;;;6.85;;
65971;SDS011;52726;48.852;9.152;2023-02-10T02:50:11;20.73;;;7.75;;
65971;SDS011;52726;48.852;9.152;2023-02-10T02:55:24;12.75;;;6.22;;
65971;SDS011;52726;48.852;9.152;2023-02-10T02:57:55;10.00;;;5.38;;
65971;SDS011;52726;48.852;9.152;2023-02-10T03:00:27;8.00;;;6.45;;
65971;SDS011;52726;48.852;9.152;2023-02-10T03:02:56;9.75;;;5.18;;
65971;SDS011;52726;48.852;9.152;2023-02-10T03:05:27;7.50;;;5.00;;
65971;SDS011;52726;48.852;9.152;2023-02-10T03:07:54;14.57;;;9.25;;
65971;SDS011;52726;48.852;9.152;2023-02-10T03:10:19;15.80;;;6.65;;
65971;SDS011;52726;48.852;9.152;2023-02-10T03:12:46;13.75;;;6.28;;
65971;SDS011;52726;48.852;9.152;2023-02-10T03:15:11;16.52;;;6.43;;
65971;SDS011;52726;48.852;9.152;2023-02-10T03:17:37;20.52;;;7.72;;
65971;SDS011;52726;48.852;9.152;2023-02-10T03:20:02;10.35;;;6.78;;
65971;SDS011;52726;48.852;9.152;2023-02-10T03:22:28;14.05;;;6.88;;
65971;SDS011;52726;48.852;9.152;2023-02-10T03:24:53;10.13;;;5.72;;
65971;SDS011;52726;48.852;9.152;2023-02-10T03:27:19;11.20;;;6.75;;
65971;SDS011;52726;48.852;9.152;2023-02-10T03:29:44;11.02;;;6.50;;
65971;SDS011;52726;48.852;9.152;2023-02-10T03:32:09;11.32;;;7.07;;
65971;SDS011;52726;48.852;9.152;2023-02-10T03:34:35;9.07;;;5.50;;
65971;SDS011;52726;48.852;9.152;2023-02-10T03:37:00;14.90;;;7.18;;
65971;SDS011;52726;48.852;9.152;2023-02-10T03:39:25;20.70;;;7.25;;
65971;SDS011;52726;48.852;9.152;2023-02-10T03:41:51;12.65;;;5.35;;
65971;SDS011;52726;48.852;9.152;2023-02-10T03:44:18;17.00;;;7.70;;
65971;SDS011;52726;48.852;9.152;2023-02-10T03:46:43;21.23;;;9.45;;
65971;SDS011;52726;48.852;9.152;2023-02-10T03:49:09;12.60;;;7.18;;
65971;SDS011;52726;48.852;9.152;2023-02-10T03:51:34;9.90;;;6.38;;
65971;SDS011;52726;48.852;9.152;2023-02-10T03:53:59;10.13;;;4.65;;
65971;SDS011;52726;48.852;9.152;2023-02-10T03:56:25;9.90;;;6.05;;
65971;SDS011;52726;48.852;9.152;2023-02-10T03:58:50;13.75;;;5.75;;
65971;SDS011;52726;48.852;9.152;2023-02-10T04:01:16;13.68;;;6.28;;
65971;SDS011;52726;48.852;9.152;2023-02-10T04:03:42;8.80;;;5.47;;
65971;SDS011;52726;48.852;9.152;2023-02-10T04:06:09;13.27;;;4.35;;
65971;SDS011;52726;48.852;9.152;2023-02-10T04:08:35;11.48;;;6.57;;
65971;SDS011;52726;48.852;9.152;2023-02-10T04:11:00;13.27;;;6.68;;
65971;SDS011;52726;48.852;9.152;2023-02-10T04:13:25;14.55;;;7.22;;
65971;SDS011;52726;48.852;9.152;2023-02-10T04:16:00;11.77;;;7.10;;
65971;SDS011;52726;48.852;9.152;2023-02-10T04:18:27;15.68;;;6.32;;
65971;SDS011;52726;48.852;9.152;2023-02-10T04:20:52;8.07;;;5.50;;
65971;SDS011;52726;48.852;9.152;2023-02-10T04:23:17;8.23;;;6.28;;
65971;SDS011;52726;48.852;9.152;2023-02-10T04:25:43;9.85;;;6.25;;
65971;SDS011;52726;48.852;9.152;2023-02-10T04:28:08;9.77;;;5.75;;
65971;SDS011;52726;48.852;9.152;2023-02-10T04:30:33;11.00;;;6.88;;
65971;SDS011;52726;48.852;9.152;2023-02-10T04:32:58;10.32;;;5.03;;
65971;SDS011;52726;48.852;9.152;2023-02-10T04:35:24;6.53;;;5.72;;
65971;SDS011;52726;48.852;9.152;2023-02-10T04:37:49;9.73;;;5.88;;
65971;SDS011;52726;48.852;9.152;2023-02-10T04:40:15;10.30;;;6.60;;
65971;SDS011;52726;48.852;9.152;2023-02-10T04:42:40;11.75;;;6.00;;
65971;SDS011;52726;48.852;9.152;2023-02-10T04:45:05;7.80;;;4.93;;
65971;SDS011;52726;48.852;9.152;2023-02-10T04:47:31;19.33;;;5.68;;
65971;SDS011;52726;48.852;9.152;2023-02-10T04:49:57;12.75;;;6.00;;
65971;SDS011;52726;48.852;9.152;2023-02-10T04:52:22;13.88;;;7.00;;
65971;SDS011;52726;48.852;9.152;2023-02-10T04:54:47;19.00;;;8.13;;
65971;SDS011;52726;48.852;9.152;2023-02-10T04:57:13;11.38;;;6.32;;
65971;SDS011;52726;48.852;9.152;2023-02-10T04:59:38;17.98;;;8.15;;
65971;SDS011;52726;48.852;9.152;2023-02-10T05:02:03;13.77;;;7.65;;
65971;SDS011;52726;48.852;9.152;2023-02-10T05:04:29;17.05;;;7.75;;
65971;SDS011;52726;48.852;9.152;2023-02-10T05:06:54;15.90;;;7.22;;
65971;SDS011;52726;48.852;9.152;2023-02-10T05:09:23;16.05;;;6.35;;
65971;SDS011;52726;48.852;9.152;2023-02-10T05:11:49;9.50;;;6.63;;
65971;SDS011;52726;48.852;9.152;2023-02-10T05:14:14;17.77;;;8.60;;
65971;SDS011;52726;48.852;9.152;2023-02-10T05:16:40;11.38;;;7.07;;
65971;SDS011;52726;48.852;9.152;2023-02-10T05:19:05;13.88;;;5.63;;
65971;SDS011;52726;48.852;9.152;2023-02-10T05:21:30;14.32;;;5.78;;
65971;SDS011;52726;48.852;9.152;2023-02-10T05:23:57;9.77;;;5.43;;
65971;SDS011;52726;48.852;9.152;2023-02-10T05:26:23;19.48;;;7.10;;
65971;SDS011;52726;48.852;9.152;2023-02-10T05:28:48;16.58;;;7.70;;
65971;SDS011;52726;48.852;9.152;2023-02-10T05:31:13;15.52;;;8.23;;
65971;SDS011;52726;48.852;9.152;2023-02-10T05:33:39;21.60;;;6.40;;
65971;SDS011;52726;48.852;9.152;2023-02-10T05:36:04;9.90;;;5.63;;
65971;SDS011;52726;48.852;9.152;2023-02-10T05:38:30;15.25;;;5.78;;
65971;SDS011;52726;48.852;9.152;2023-02-10T05:40:56;21.02;;;8.02;;
65971;SDS011;52726;48.852;9.152;2023-02-10T05:43:21;13.07;;;6.22;;
65971;SDS011;52726;48.852;9.152;2023-02-10T05:45:46;7.30;;;5.85;;
65971;SDS011;52726;48.852;9.152;2023-02-10T05:48:12;15.40;;;8.15;;
65971;SDS011;52726;48.852;9.152;2023-02-10T05:50:37;13.98;;;7.78;;
65971;SDS011;52726;48.852;9.152;2023-02-10T05:53:04;7.40;;;5.43;;
65971;SDS011;52726;48.852;9.152;2023-02-10T05:55:30;11.38;;;7.22;;
65971;SDS011;52726;48.852;9.152;2023-02-10T05:57:56;17.45;;;7.60;;
65971;SDS011;52726;48.852;9.152;2023-02-10T06:00:21;16.38;;;6.88;;
65971;SDS011;52726;48.852;9.152;2023-02-10T06:02:47;12.70;;;7.20;;
65971;SDS011;52726;48.852;9.152;2023-02-10T06:05:13;16.80;;;6.75;;
65971;SDS011;52726;48.852;9.152;2023-02-10T06:07:39;18.05;;;7.97;;
65971;SDS011;52726;48.852;9.152;2023-02-10T06:10:04;14.95;;;6.13;;
65971;SDS011;52726;48.852;9.152;2023-02-10T06:12:30;7.47;;;4.95;;
65971;SDS011;52726;48.852;9.152;2023-02-10T06:14:56;10.40;;;5.93;;
65971;SDS011;52726;48.852;9.152;2023-02-10T06:17:22;10.20;;;5.57;;
65971;SDS011;52726;48.852;9.152;2023-02-10T06:19:47;8.52;;;5.35;;
65971;SDS011;52726;48.852;9.152;2023-02-10T06:22:13;21.80;;;7.55;;
65971;SDS011;52726;48.852;9.152;2023-02-10T06:24:38;8.48;;;4.47;;
65971;SDS011;52726;48.852;9.152;2023-02-10T06:27:03;15.75;;;4.38;;
65971;SDS011;52726;48.852;9.152;2023-02-10T06:29:30;11.65;;;5.82;;
65971;SDS011;52726;48.852;9.152;2023-02-10T06:31:55;12.15;;;6.45;;
65971;SDS011;52726;48.852;9.152;2023-02-10T06:34:21;14.98;;;6.07;;
65971;SDS011;52726;48.852;9.152;2023-02-10T06:36:46;13.98;;;7.47;;
65971;SDS011;52726;48.852;9.152;2023-02-10T06:39:11;14.38;;;6.53;;
65971;SDS011;52726;48.852;9.152;2023-02-10T06:41:37;10.88;;;5.72;;
65971;SDS011;52726;48.852;9.152;2023-02-10T06:44:02;13.65;;;6.93;;
65971;SDS011;52726;48.852;9.152;2023-02-10T06:46:28;7.57;;;4.80;;
65971;SDS011;52726;48.852;9.152;2023-02-10T06:48:53;7.38;;;5.30;;
65971;SDS011;52726;48.852;9.152;2023-02-10T06:51:19;12.52;;;4.45;;
65971;SDS011;52726;48.852;9.152;2023-02-10T06:53:44;9.90;;;7.72;;
65971;SDS011;52726;48.852;9.152;2023-02-10T06:56:10;10.75;;;5.63;;
65971;SDS011;52726;48.852;9.152;2023-02-10T06:58:36;15.77;;;7.47;;
65971;SDS011;52726;48.852;9.152;2023-02-10T07:01:06;9.52;;;6.95;;
65971;SDS011;52726;48.852;9.152;2023-02-10T07:03:35;7.63;;;5.68;;
65971;SDS011;52726;48.852;9.152;2023-02-10T07:06:01;16.73;;;8.52;;
65971;SDS011;52726;48.852;9.152;2023-02-10T07:08:26;26.60;;;9.63;;
65971;SDS011;52726;48.852;9.152;2023-02-10T07:10:52;19.13;;;10.68;;
65971;SDS011;52726;48.852;9.152;2023-02-10T07:13:18;23.25;;;10.23;;
65971;SDS011;52726;48.852;9.152;2023-02-10T07:15:43;23.95;;;10.43;;
65971;SDS011;52726;48.852;9.152;2023-02-10T07:18:09;14.32;;;8.98;;
65971;SDS011;52726;48.852;9.152;2023-02-10T07:20:34;21.52;;;9.50;;
65971;SDS011;52726;48.852;9.152;2023-02-10T07:22:59;17.48;;;8.95;;
65971;SDS011;52726;48.852;9.152;2023-02-10T07:25:24;22.48;;;10.98;;
65971;SDS011;52726;48.852;9.152;2023-02-10T07:27:50;21.23;;;9.63;;
65971;SDS011;52726;48.852;9.152;2023-02-10T07:30:15;20.23;;;11.63;;
65971;SDS011;52726;48.852;9.152;2023-02-10T07:32:41;23.13;;;10.55;;
65971;SDS011;52726;48.852;9.152;2023-02-10T07:35:07;18.75;;;11.30;;
65971;SDS011;52726;48.852;9.152;2023-02-10T07:37:33;28.15;;;12.30;;
65971;SDS011;52726;48.852;9.152;2023-02-10T07:39:59;25.35;;;11.90;;
65971;SDS011;52726;48.852;9.152;2023-02-10T07:42:24;23.75;;;11.63;;
65971;SDS011;52726;48.852;9.152;2023-02-10T07:44:49;24.85;;;12.02;;
65971;SDS011;52726;48.852;9.152;2023-02-10T07:47:15;24.65;;;12.70;;
65971;SDS011;52726;48.852;9.152;2023-02-10T07:49:40;28.55;;;12.30;;
65971;SDS011;52726;48.852;9.152;2023-02-10T07:52:05;26.33;;;12.52;;
65971;SDS011;52726;48.852;9.152;2023-02-10T07:54:31;24.65;;;12.98;;
65971;SDS011;52726;48.852;9.152;2023-02-10T07:56:56;25.38;;;12.15;;
65971;SDS011;52726;48.852;9.152;2023-02-10T07:59:22;34.55;;;13.60;;
65971;SDS011;52726;48.852;9.152;2023-02-10T08:01:47;25.85;;;12.02;;
65971;SDS011;52726;48.852;9.152;2023-02-10T08:04:12;23.27;;;13.43;;
65971;SDS011;52726;48.852;9.152;2023-02-10T08:06:38;24.90;;;13.13;;
65971;SDS011;52726;48.852;9.152;2023-02-10T08:09:04;31.58;;;13.35;;
65971;SDS011;52726;48.852;9.152;2023-02-10T08:11:30;34.50;;;13.55;;
65971;SDS011;52726;48.852;9.152;2023-02-10T08:13:55;29.48;;;13.35;;
65971;SDS011;52726;48.852;9.152;2023-02-10T08:16:21;29.05;;;13.35;;
65971;SDS011;52726;48.852;9.152;2023-02-10T08:18:46;34.33;;;14.52;;
65971;SDS011;52726;48.852;9.152;2023-02-10T08:21:11;28.13;;;13.90;;
65971;SDS011;52726;48.852;9.152;2023-02-10T08:23:37;32.30;;;13.45;;
65971;SDS011;52726;48.852;9.152;2023-02-10T08:26:03;31.50;;;13.65;;
65971;SDS011;52726;48.852;9.152;2023-02-10T08:28:34;24.83;;;12.65;;
65971;SDS011;52726;48.852;9.152;2023-02-10T08:31:01;28.27;;;12.35;;
65971;SDS011;52726;48.852;9.152;2023-02-10T08:33:27;24.83;;;12.23;;
65971;SDS011;52726;48.852;9.152;2023-02-10T08:35:53;27.48;;;13.57;;
65971;SDS011;52726;48.852;9.152;2023-02-10T08:38:18;23.75;;;12.55;;
65971;SDS011;52726;48.852;9.152;2023-02-10T08:40:43;26.83;;;14.32;;
65971;SDS011;52726;48.852;9.152;2023-02-10T08:43:09;31.77;;;13.05;;
65971;SDS011;52726;48.852;9.152;2023-02-10T08:45:34;26.80;;;12.15;;
65971;SDS011;52726;48.852;9.152;2023-02-10T08:48:03;26.33;;;12.10;;
65971;SDS011;52726;48.852;9.152;2023-02-10T08:50:28;23.50;;;11.27;;
65971;SDS011;52726;48.852;9.152;2023-02-10T08:52:53;23.55;;;11.38;;
65971;SDS011;52726;48.852;9.152;2023-02-10T08:55:19;26.98;;;12.43;;
65971;SDS011;52726;48.852;9.152;2023-02-10T08:57:44;17.63;;;9.52;;
65971;SDS011;52726;48.852;9.152;2023-02-10T09:00:10;23.15;;;10.95;;
65971;SDS011;52726;48.852;9.152;2023-02-10T09:02:35;25.70;;;12.25;;
65971;SDS011;52726;48.852;9.152;2023-02-10T09:05:01;20.02;;;10.77;;
65971;SDS011;52726;48.852;9.152;2023-02-10T09:07:27;22.90;;;11.85;;
65971;SDS011;52726;48.852;9.152;2023-02-10T09:09:52;20.73;;;10.38;;
65971;SDS011;52726;48.852;9.152;2023-02-10T09:12:17;21.45;;;10.52;;
65971;SDS011;52726;48.852;9.152;2023-02-10T09:14:43;19.63;;;10.95;;
65971;SDS011;52726;48.852;9.152;2023-02-10T09:17:08;22.10;;;10.77;;
65971;SDS011;52726;48.852;9.152;2023-02-10T09:19:37;23.50;;;10.13;;
65971;SDS011;52726;48.852;9.152;2023-02-10T09:22:06;23.98;;;11.00;;
65971;SDS011;52726;48.852;9.152;2023-02-10T09:24:32;16.20;;;9.43;;
65971;SDS011;52726;48.852;9.152;2023-02-10T09:26:58;19.42;;;10.60;;
65971;SDS011;52726;48.852;9.152;2023-02-10T09:29:24;20.20;;;9.50;;
65971;SDS011;52726;48.852;9.152;2023-02-10T09:31:50;21.38;;;10.63;;
65971;SDS011;52726;48.852;9.152;2023-02-10T09:34:15;15.63;;;8.85;;
65971;SDS011;52726;48.852;9.152;2023-02-10T09:36:41;21.88;;;9.75;;
65971;SDS011;52726;48.852;9.152;2023-02-10T09:39:06;25.67;;;11.70;;
65971;SDS011;52726;48.852;9.152;2023-02-10T09:44:01;20.80;;;9.95;;
65971;SDS011;52726;48.852;9.152;2023-02-10T09:55:08;26.55;;;10.82;;
65971;SDS011;52726;48.852;9.152;2023-02-10T09:57:44;31.17;;;9.38;;
65971;SDS011;52726;48.852;9.152;2023-02-10T10:00:22;23.65;;;10.38;;
65971;SDS011;52726;48.852;9.152;2023-02-10T10:02:53;20.52;;;10.35;;
65971;SDS011;52726;48.852;9.152;2023-02-10T10:05:25;23.95;;;11.02;;
65971;SDS011;52726;48.852;9.152;2023-02-10T10:08:21;24.92;;;10.43;;
65971;SDS011;52726;48.852;9.152;2023-02-10T10:10:52;22.00;;;9.50;;
65971;SDS011;52726;48.852;9.152;2023-02-10T10:13:24;20.17;;;8.95;;
65971;SDS011;52726;48.852;9.152;2023-02-10T10:16:00;22.15;;;11.63;;
65971;SDS011;52726;48.852;9.152;2023-02-10T10:18:53;28.15;;;11.57;;
65971;SDS011;52726;48.852;9.152;2023-02-10T10:21:28;20.45;;;11.10;;
65971;SDS011;52726;48.852;9.152;2023-02-10T10:27:16;18.70;;;8.90;;
65971;SDS011;52726;48.852;9.152;2023-02-10T10:29:53;21.88;;;11.25;;
65971;SDS011;52726;48.852;9.152;2023-02-10T10:34:49;20.92;;;11.30;;
65971;SDS011;52726;48.852;9.152;2023-02-10T10:37:18;19.88;;;10.80;;
65971;SDS011;52726;48.852;9.152;2023-02-10T10:39:52;21.65;;;10.90;;
65971;SDS011;52726;48.852;9.152;2023-02-10T10:45:24;22.45;;;11.05;;
65971;SDS011;52726;48.852;9.152;2023-02-10T10:48:14;24.50;;;10.77;;
65971;SDS011;52726;48.852;9.152;2023-02-10T10:50:42;24.85;;;11.35;;
65971;SDS011;52726;48.852;9.152;2023-02-10T10:53:13;23.00;;;11.07;;
65971;SDS011;52726;48.852;9.152;2023-02-10T10:55:46;28.17;;;11.15;;
65971;SDS011;52726;48.852;9.152;2023-02-10T10:58:21;23.23;;;12.00;;
65971;SDS011;52726;48.852;9.152;2023-02-10T11:01:02;27.45;;;10.52;;
65971;SDS011;52726;48.852;9.152;2023-02-10T11:03:29;22.65;;;11.10;;
65971;SDS011;52726;48.852;9.152;2023-02-10T11:05:59;29.80;;;11.70;;
65971;SDS011;52726;48.852;9.152;2023-02-10T11:08:32;26.13;;;10.65;;
65971;SDS011;52726;48.852;9.152;2023-02-10T11:11:01;19.23;;;10.15;;
65971;SDS011;52726;48.852;9.152;2023-02-10T11:13:29;25.77;;;11.68;;
65971;SDS011;52726;48.852;9.152;2023-02-10T11:16:01;18.33;;;9.68;;
65971;SDS011;52726;48.852;9.152;2023-02-10T11:18:30;18.85;;;9.88;;
65971;SDS011;52726;48.852;9.152;2023-02-10T11:20:57;22.10;;;10.93;;
65971;SDS011;52726;48.852;9.152;2023-02-10T11:23:25;23.88;;;10.98;;
65971;SDS011;52726;48.852;9.152;2023-02-10T11:26:34;26.70;;;9.63;;
65971;SDS011;52726;48.852;9.152;2023-02-10T11:28:48;23.40;;;10.75;;
65971;SDS011;52726;48.852;9.152;2023-02-10T11:31:32;19.55;;;8.63;;
65971;SDS011;52726;48.852;9.152;2023-02-10T11:34:06;16.75;;;9.38;;
65971;SDS011;52726;48.852;9.152;2023-02-10T11:36:41;24.98;;;10.23;;
65971;SDS011;52726;48.852;9.152;2023-02-10T11:39:22;23.17;;;11.75;;
65971;SDS011;52726;48.852;9.152;2023-02-10T11:41:50;23.90;;;9.85;;
65971;SDS011;52726;48.852;9.152;2023-02-10T11:44:27;24.40;;;10.45;;
65971;SDS011;52726;48.852;9.152;2023-02-10T11:46:55;19.50;;;9.70;;
65971;SDS011;52726;48.852;9.152;2023-02-10T11:49:26;21.15;;;8.90;;
65971;SDS011;52726;48.852;9.152;2023-02-10T11:51:56;20.25;;;9.93;;
65971;SDS011;52726;48.852;9.152;2023-02-10T11:54:23;15.68;;;8.77;;
65971;SDS011;52726;48.852;9.152;2023-02-10T11:57:52;18.50;;;9.30;;
65971;SDS011;52726;48.852;9.152;2023-02-10T12:03:03;23.77;;;8.20;;
65971;SDS011;52726;48.852;9.152;2023-02-10T12:25:19;16.40;;;8.00;;
65971;SDS011;52726;48.852;9.152;2023-02-10T12:27:54;19.67;;;9.35;;
65971;SDS011;52726;48.852;9.152;2023-02-10T12:33:22;18.67;;;8.20;;
65971;SDS011;52726;48.852;9.152;2023-02-10T12:39:02;22.00;;;9.35;;
65971;SDS011;52726;48.852;9.152;2023-02-10T12:44:34;17.90;;;7.63;;
65971;SDS011;52726;48.852;9.152;2023-02-10T12:58:16;17.55;;;8.57;;
65971;SDS011;52726;48.852;9.152;2023-02-10T13:00:48;17.92;;;8.98;;
65971;SDS011;52726;48.852;9.152;2023-02-10T13:03:23;19.02;;;9.63;;
65971;SDS011;52726;48.852;9.152;2023-02-10T13:05:55;23.65;;;10.07;;
65971;SDS011;52726;48.852;9.152;2023-02-10T13:08:29;18.33;;;9.07;;
65971;SDS011;52726;48.852;9.152;2023-02-10T13:11:00;23.83;;;8.50;;
65971;SDS011;52726;48.852;9.152;2023-02-10T13:13:32;26.67;;;9.07;;
65971;SDS011;52726;48.852;9.152;2023-02-10T13:15:59;14.55;;;7.82;;
65971;SDS011;52726;48.852;9.152;2023-02-10T13:18:26;14.13;;;7.95;;
65971;SDS011;52726;48.852;9.152;2023-02-10T13:23:29;18.13;;;9.27;;
65971;SDS011;52726;48.852;9.152;2023-02-10T13:39:57;16.55;;;8.95;;
65971;SDS011;52726;48.852;9.152;2023-02-10T13:42:35;16.90;;;8.13;;
65971;SDS011;52726;48.852;9.152;2023-02-10T13:45:06;20.00;;;9.88;;
65971;SDS011;52726;48.852;9.152;2023-02-10T13:52:48;15.75;;;9.02;;
65971;SDS011;52726;48.852;9.152;2023-02-10T13:57:50;15.50;;;7.65;;
65971;SDS011;52726;48.852;9.152;2023-02-10T14:00:22;35.43;;;9.60;;
65971;SDS011;52726;48.852;9.152;2023-02-10T14:08:31;25.02;;;9.45;;
65971;SDS011;52726;48.852;9.152;2023-02-10T14:13:24;15.68;;;8.80;;
65971;SDS011;52726;48.852;9.152;2023-02-10T14:15:58;23.85;;;8.73;;
65971;SDS011;52726;48.852;9.152;2023-02-10T14:18:30;19.52;;;8.90;;
65971;SDS011;52726;48.852;9.152;2023-02-10T14:20:59;18.60;;;7.53;;
65971;SDS011;52726;48.852;9.152;2023-02-10T14:23:37;21.48;;;9.57;;
65971;SDS011;52726;48.852;9.152;2023-02-10T14:26:06;15.15;;;7.40;;
65971;SDS011;52726;48.852;9.152;2023-02-10T14:28:46;15.57;;;8.50;;
65971;SDS011;52726;48.852;9.152;2023-02-10T14:31:16;18.35;;;8.65;;
65971;SDS011;52726;48.852;9.152;2023-02-10T14:33:51;22.08;;;9.82;;
65971;SDS011;52726;48.852;9.152;2023-02-10T14:36:21;25.55;;;9.88;;
65971;SDS011;52726;48.852;9.152;2023-02-10T14:38:53;21.00;;;9.68;;
65971;SDS011;52726;48.852;9.152;2023-02-10T14:41:24;26.98;;;9.77;;
65971;SDS011;52726;48.852;9.152;2023-02-10T14:43:51;19.42;;;8.73;;
65971;SDS011;52726;48.852;9.152;2023-02-10T14:46:29;19.60;;;10.23;;
65971;SDS011;52726;48.852;9.152;2023-02-10T14:49:07;21.67;;;8.45;;
65971;SDS011;52726;48.852;9.152;2023-02-10T14:51:38;15.55;;;8.90;;
65971;SDS011;52726;48.852;9.152;2023-02-10T14:54:07;19.08;;;9.70;;
65971;SDS011;52726;48.852;9.152;2023-02-10T14:56:34;37.03;;;16.05;;
65971;SDS011;52726;48.852;9.152;2023-02-10T14:58:59;21.13;;;10.95;;
65971;SDS011;52726;48.852;9.152;2023-02-10T15:01:25;25.55;;;10.80;;
65971;SDS011;52726;48.852;9.152;2023-02-10T15:03:57;27.58;;;12.65;;
65971;SDS011;52726;48.852;9.152;2023-02-10T15:06:24;24.85;;;10.18;;
65971;SDS011;52726;48.852;9.152;2023-02-10T15:17:22;22.83;;;9.55;;
65971;SDS011;52726;48.852;9.152;2023-02-10T15:20:02;50.28;;;8.82;;
65971;SDS011;52726;48.852;9.152;2023-02-10T15:27:50;19.70;;;9.15;;
65971;SDS011;52726;48.852;9.152;2023-02-10T15:30:17;22.58;;;10.60;;
65971;SDS011;52726;48.852;9.152;2023-02-10T15:32:48;33.60;;;9.73;;
65971;SDS011;52726;48.852;9.152;2023-02-10T15:35:15;16.92;;;8.55;;
65971;SDS011;52726;48.852;9.152;2023-02-10T15:37:41;19.45;;;9.43;;
65971;SDS011;52726;48.852;9.152;2023-02-10T15:42:55;19.40;;;8.18;;
65971;SDS011;52726;48.852;9.152;2023-02-10T15:45:22;22.73;;;8.77;;
65971;SDS011;52726;48.852;9.152;2023-02-10T15:48:15;16.38;;;8.10;;
65971;SDS011;52726;48.852;9.152;2023-02-10T15:50:34;16.85;;;7.13;;
65971;SDS011;52726;48.852;9.152;2023-02-10T15:53:00;36.85;;;8.23;;
65971;SDS011;52726;48.852;9.152;2023-02-10T15:55:29;16.13;;;7.25;;
65971;SDS011;52726;48.852;9.152;2023-02-10T15:57:56;16.30;;;8.30;;
65971;SDS011;52726;48.852;9.152;2023-02-10T16:00:26;19.65;;;9.45;;
65971;SDS011;52726;48.852;9.152;2023-02-10T16:02:53;21.90;;;7.95;;
65971;SDS011;52726;48.852;9.152;2023-02-10T16:05:20;16.70;;;7.10;;
65971;SDS011;52726;48.852;9.152;2023-02-10T16:07:46;25.05;;;9.27;;
65971;SDS011;52726;48.852;9.152;2023-02-10T16:10:16;19.75;;;9.00;;
65971;SDS011;52726;48.852;9.152;2023-02-10T16:12:46;22.45;;;8.35;;
65971;SDS011;52726;48.852;9.152;2023-02-10T16:15:13;18.65;;;9.05;;
65971;SDS011;52726;48.852;9.152;2023-02-10T16:17:40;15.13;;;7.68;;
65971;SDS011;52726;48.852;9.152;2023-02-10T16:20:15;16.17;;;7.75;;
65971;SDS011;52726;48.852;9.152;2023-02-10T16:22:46;19.98;;;7.45;;
65971;SDS011;52726;48.852;9.152;2023-02-10T16:25:12;14.55;;;7.45;;
65971;SDS011;52726;48.852;9.152;2023-02-10T16:27:38;16.98;;;7.80;;
65971;SDS011;52726;48.852;9.152;2023-02-10T16:30:04;17.50;;;7.22;;
65971;SDS011;52726;48.852;9.152;2023-02-10T16:32:30;18.48;;;8.07;;
65971;SDS011;52726;48.852;9.152;2023-02-10T16:34:55;17.70;;;7.82;;
65971;SDS011;52726;48.852;9.152;2023-02-10T16:37:20;14.18;;;6.43;;
65971;SDS011;52726;48.852;9.152;2023-02-10T16:39:47;21.23;;;8.52;;
65971;SDS011;52726;48.852;9.152;2023-02-10T16:42:13;18.60;;;8.13;;
65971;SDS011;52726;48.852;9.152;2023-02-10T16:44:39;16.25;;;7.72;;
65971;SDS011;52726;48.852;9.152;2023-02-10T16:47:05;17.42;;;7.32;;
65971;SDS011;52726;48.852;9.152;2023-02-10T16:49:30;16.70;;;6.88;;
65971;SDS011;52726;48.852;9.152;2023-02-10T16:51:55;15.02;;;6.65;;
65971;SDS011;52726;48.852;9.152;2023-02-10T16:54:21;15.98;;;6.88;;